Change the Weather History Date:

Sunday, June 23, 2013

  Actual Average Record
Temperature  
Mean Temperature 73 °F -  
Max Temperature 80 °F 82 °F 92 °F (1953)
Min Temperature 66 °F 61 °F 51 °F (1982)
Cooling Degree Days 8    
Growing Degree Days 23 (Base 50)    
Moisture  
Dew Point 68 °F    
Average Humidity 89    
Maximum Humidity 100    
Minimum Humidity 73    
Precipitation  
Precipitation 0.00 in - - ()
Sea Level Pressure  
Sea Level Pressure 29.95 in    
Wind  
Wind Speed 10 mph (SSE)    
Max Wind Speed 22 mph    
Max Gust Speed 37 mph    
Visibility 10 miles    
Events Rain    
Averages and records for this station are not official NWS values.
T = Trace of Precipitation, MM = Missing Value Source: NWS Daily Summary

Daily Weather History Graph

Daily Weather History Graph

Search for Another Location

Airport or City:

Trip Planner

Search our weather history database for the weather conditions in past years. The results will help you decide how hot, cold, wet, or windy it might be!

Date:

Astronomy

Jun. 23, 2013 Rise Set
Actual Time 5:41 AM CDT 8:46 PM CDT
Civil Twilight 5:07 AM CDT 9:19 PM CDT
Nautical Twilight 4:25 AM CDT 10:02 PM CDT
Astronomical Twilight 3:34 AM CDT 10:52 PM CDT
Moon 8:58 PM CDT (6/23) 5:59 AM CDT (6/23)
Length of Visible Light 16h 12m
Length of Day
15h 05m
Full, 100% of the Moon is Illuminated
Jun 23
Full
Jun 29
Last Quarter
Jul 8
New
Jul 15
First Quarter
Jul 22
Full

Hourly Weather History & Observations

Time (CDT) Temp. Heat Index Dew Point Humidity Pressure Visibility Wind Dir Wind Speed Gust Speed Precip Events Conditions
12:15 AM 77.0 °F - 71.6 °F 83% 29.96 in 10.0 mi South 11.5 mph - N/A   Clear
12:35 AM 77.0 °F - 71.6 °F 83% 29.95 in 10.0 mi SSE 11.5 mph - N/A   Clear
12:55 AM 77.0 °F - 71.6 °F 83% 29.94 in 10.0 mi SSE 10.4 mph - N/A   Clear
1:15 AM 77.0 °F - 71.6 °F 83% 29.94 in 10.0 mi SSE 10.4 mph - N/A   Clear
1:35 AM 75.2 °F - 71.6 °F 89% 29.93 in 10.0 mi SSE 10.4 mph - N/A   Clear
1:55 AM 75.2 °F - 69.8 °F 83% 29.93 in 10.0 mi SSE 12.7 mph - N/A   Clear
2:15 AM 75.2 °F - 69.8 °F 83% 29.92 in 10.0 mi SSE 10.4 mph - N/A   Clear
2:35 AM 75.2 °F - 69.8 °F 83% 29.92 in 10.0 mi South 10.4 mph - N/A   Clear
2:55 AM 73.4 °F - 69.8 °F 88% 29.93 in 10.0 mi SSE 10.4 mph - N/A   Clear
3:15 AM 73.4 °F - 68.0 °F 83% 29.95 in 10.0 mi South 9.2 mph - N/A   Clear
3:35 AM 73.4 °F - 68.0 °F 83% 29.95 in 10.0 mi South 9.2 mph - N/A   Clear
3:55 AM 73.4 °F - 68.0 °F 83% 29.95 in 10.0 mi South 8.1 mph - N/A   Clear
4:15 AM 71.6 °F - 68.0 °F 88% 29.94 in 10.0 mi South 5.8 mph - N/A   Clear
4:35 AM 71.6 °F - 68.0 °F 88% 29.94 in 10.0 mi SSE 8.1 mph - N/A   Clear
4:55 AM 71.6 °F - 68.0 °F 88% 29.93 in 10.0 mi SSE 9.2 mph - N/A   Clear
5:15 AM 71.6 °F - 68.0 °F 88% 29.93 in 10.0 mi South 8.1 mph - N/A   Clear
5:35 AM 71.6 °F - 68.0 °F 88% 29.93 in 10.0 mi South 10.4 mph - N/A   Clear
5:55 AM 71.6 °F - 68.0 °F 88% 29.92 in 10.0 mi SSE 8.1 mph - N/A   Clear
6:15 AM 69.8 °F - 68.0 °F 94% 29.93 in 10.0 mi SSE 8.1 mph - N/A   Clear
6:35 AM 71.6 °F - 68.0 °F 88% 29.92 in 10.0 mi SSE 9.2 mph - N/A   Clear
6:55 AM 71.6 °F - 68.0 °F 88% 29.91 in 10.0 mi South 10.4 mph 16.1 mph N/A   Clear
7:15 AM 73.4 °F - 69.8 °F 88% 29.92 in 10.0 mi South 10.4 mph - N/A   Clear
7:35 AM 73.4 °F - 69.8 °F 88% 29.93 in 10.0 mi South 10.4 mph - N/A   Clear
7:55 AM 75.2 °F - 69.8 °F 83% 29.93 in 10.0 mi South 12.7 mph 18.4 mph N/A   Clear
8:15 AM 75.2 °F - 69.8 °F 83% 29.94 in 10.0 mi South 12.7 mph - N/A   Clear
8:35 AM 77.0 °F - 71.6 °F 83% 29.94 in 10.0 mi South 12.7 mph - N/A   Clear
8:55 AM 78.8 °F - 71.6 °F 78% 29.95 in 10.0 mi South 12.7 mph 20.7 mph N/A   Clear
9:15 AM 80.6 °F 84.6 °F 71.6 °F 74% 29.95 in 10.0 mi South 11.5 mph 19.6 mph N/A   Clear
9:35 AM 80.6 °F 84.6 °F 71.6 °F 74% 29.98 in 10.0 mi SSW 15.0 mph 18.4 mph N/A   Clear
9:55 AM 80.6 °F 84.6 °F 71.6 °F 74% 29.99 in 10.0 mi SW 12.7 mph 18.4 mph N/A   Scattered Clouds
10:15 AM 73.4 °F - 64.4 °F 73% 30.01 in 10.0 mi NW 21.9 mph 36.8 mph N/A   Overcast
10:35 AM 66.2 °F - 64.4 °F 94% 30.04 in 1.5 mi NNW 19.6 mph - N/A Rain Rain
10:55 AM 66.2 °F - 64.4 °F 94% 30.08 in 1.8 mi NNW 11.5 mph - N/A Rain Rain
11:15 AM 66.2 °F - 66.2 °F 100% 30.06 in 0.5 mi North 9.2 mph - N/A Rain Heavy Rain
11:35 AM 66.2 °F - 66.2 °F 100% 30.07 in 5.0 mi Calm Calm - N/A Rain Rain
11:55 AM 66.2 °F - 66.2 °F 100% 30.04 in 9.0 mi ENE 8.1 mph - N/A Rain Light Rain
12:15 PM 66.2 °F - 66.2 °F 100% 30.01 in 10.0 mi East 10.4 mph - N/A Rain Light Rain
12:35 PM 66.2 °F - 66.2 °F 100% 29.97 in 9.0 mi East 13.8 mph - N/A Rain Light Rain
12:55 PM 66.2 °F - 66.2 °F 100% 29.95 in 10.0 mi ESE 13.8 mph - N/A   Scattered Clouds
1:15 PM 66.2 °F - 66.2 °F 100% 29.94 in 10.0 mi ESE 15.0 mph 20.7 mph N/A   Clear
1:35 PM 66.2 °F - 66.2 °F 100% 29.91 in 10.0 mi East 15.0 mph 23.0 mph N/A   Clear
1:55 PM 68.0 °F - 66.2 °F 94% 29.88 in 10.0 mi ESE 13.8 mph 19.6 mph N/A   Clear
2:15 PM 69.8 °F - 64.4 °F 83% 29.90 in 10.0 mi SE 13.8 mph 18.4 mph N/A   Clear
2:35 PM 69.8 °F - 66.2 °F 88% 29.91 in 10.0 mi SSE 11.5 mph - N/A   Clear
2:55 PM 69.8 °F - 66.2 °F 88% 29.91 in 10.0 mi SSE 8.1 mph - N/A   Clear
3:15 PM 71.6 °F - 66.2 °F 83% 29.92 in 10.0 mi SSE 8.1 mph - N/A   Clear
3:35 PM 71.6 °F - 66.2 °F 83% 29.92 in 10.0 mi SSE 6.9 mph - N/A   Clear
3:55 PM 69.8 °F - 66.2 °F 88% 29.93 in 10.0 mi Calm Calm - N/A   Clear
4:15 PM 69.8 °F - 66.2 °F 88% 29.93 in 10.0 mi South 5.8 mph - N/A   Clear
4:35 PM 71.6 °F - 66.2 °F 83% 29.93 in 10.0 mi SSE 10.4 mph - N/A   Clear
4:55 PM 71.6 °F - 66.2 °F 83% 29.94 in 10.0 mi South 9.2 mph - N/A   Clear
5:15 PM 71.6 °F - 66.2 °F 83% 29.94 in 10.0 mi SSW 6.9 mph - N/A   Clear
5:35 PM 71.6 °F - 68.0 °F 88% 29.93 in 10.0 mi SW 4.6 mph - N/A   Clear
5:55 PM 71.6 °F - 68.0 °F 88% 29.93 in 10.0 mi Calm Calm - N/A   Clear
6:15 PM 73.4 °F - 68.0 °F 83% 29.92 in 10.0 mi Calm Calm - N/A   Clear
6:35 PM 73.4 °F - 68.0 °F 83% 29.92 in 10.0 mi SSW 6.9 mph - N/A   Clear
6:55 PM 73.4 °F - 68.0 °F 83% 29.92 in 10.0 mi Calm Calm - N/A   Clear
7:15 PM 73.4 °F - 68.0 °F 83% 29.94 in 10.0 mi SSE 4.6 mph - N/A   Clear
7:35 PM 73.4 °F - 69.8 °F 88% 29.95 in 10.0 mi SSE 8.1 mph - N/A   Partly Cloudy
7:55 PM 71.6 °F - 68.0 °F 88% 29.95 in 10.0 mi SE 5.8 mph - N/A   Partly Cloudy
8:15 PM 71.6 °F - 68.0 °F 88% 29.95 in 10.0 mi Calm Calm - N/A   Scattered Clouds
8:35 PM 71.6 °F - 68.0 °F 88% 29.95 in 10.0 mi SE 9.2 mph - N/A   Mostly Cloudy
8:55 PM 69.8 °F - 68.0 °F 94% 29.97 in 10.0 mi Calm Calm - N/A   Scattered Clouds
9:15 PM 69.8 °F - 68.0 °F 94% 29.97 in 10.0 mi Calm Calm - N/A   Clear
9:35 PM 69.8 °F - 68.0 °F 94% 29.98 in 10.0 mi Calm Calm - N/A   Clear
9:55 PM 68.0 °F - 68.0 °F 100% 29.98 in 10.0 mi Calm Calm - N/A   Clear
10:15 PM 68.0 °F - 68.0 °F 100% 30.00 in 10.0 mi ESE 6.9 mph - N/A   Clear
10:35 PM 68.0 °F - 68.0 °F 100% 29.99 in 10.0 mi SE 6.9 mph - N/A   Clear
10:55 PM 68.0 °F - 68.0 °F 100% 29.98 in 10.0 mi SE 8.1 mph - N/A   Clear
11:15 PM 68.0 °F - 68.0 °F 100% 29.97 in 10.0 mi SSE 9.2 mph - N/A   Clear
11:35 PM 68.0 °F - 68.0 °F 100% 29.97 in 10.0 mi SE 6.9 mph - N/A   Clear
11:55 PM 68.0 °F - 68.0 °F 100% 29.96 in 10.0 mi SSE 11.5 mph - N/A   Clear